sensor_id;sensor_type;location;lat;lon;timestamp;pressure;altitude;pressure_sealevel;temperature;humidity
42847;BME280;28495;49.916;14.536;2023-03-31T00:03:56;96297.81;;;8.28;72.91
42847;BME280;28495;49.916;14.536;2023-03-31T00:09:21;96297.94;;;8.36;73.02
42847;BME280;28495;49.916;14.536;2023-03-31T00:14:43;96280.69;;;8.26;72.86
42847;BME280;28495;49.916;14.536;2023-03-31T00:20:04;96280.03;;;8.14;72.75
42847;BME280;28495;49.916;14.536;2023-03-31T00:25:28;96274.53;;;8.17;73.02
42847;BME280;28495;49.916;14.536;2023-03-31T00:30:48;96262.25;;;8.19;73.27
42847;BME280;28495;49.916;14.536;2023-03-31T00:36:10;96261.72;;;8.25;73.22
42847;BME280;28495;49.916;14.536;2023-03-31T00:41:31;96265.25;;;8.14;72.44
42847;BME280;28495;49.916;14.536;2023-03-31T00:52:23;96252.81;;;8.18;72.94
42847;BME280;28495;49.916;14.536;2023-03-31T00:57:47;96246.38;;;8.42;73.58
42847;BME280;28495;49.916;14.536;2023-03-31T01:03:08;96242.81;;;8.43;72.95
42847;BME280;28495;49.916;14.536;2023-03-31T01:08:31;96231.31;;;8.45;72.80
42847;BME280;28495;49.916;14.536;2023-03-31T01:13:54;96212.31;;;8.45;73.00
42847;BME280;28495;49.916;14.536;2023-03-31T01:19:26;96200.00;;;8.47;72.68
42847;BME280;28495;49.916;14.536;2023-03-31T01:37:18;96183.78;;;8.15;72.04
42847;BME280;28495;49.916;14.536;2023-03-31T01:42:17;96165.63;;;7.96;71.88
42847;BME280;28495;49.916;14.536;2023-03-31T01:48:02;96161.97;;;7.98;72.44
42847;BME280;28495;49.916;14.536;2023-03-31T01:53:37;96145.03;;;7.84;72.26
42847;BME280;28495;49.916;14.536;2023-03-31T01:59:09;96151.59;;;7.69;72.35
42847;BME280;28495;49.916;14.536;2023-03-31T02:04:48;96134.00;;;7.62;72.50
42847;BME280;28495;49.916;14.536;2023-03-31T02:10:11;96137.53;;;7.61;72.74
42847;BME280;28495;49.916;14.536;2023-03-31T02:15:38;96134.09;;;7.61;72.70
42847;BME280;28495;49.916;14.536;2023-03-31T02:21:02;96116.63;;;7.73;73.17
42847;BME280;28495;49.916;14.536;2023-03-31T02:26:27;96109.00;;;7.71;72.81
42847;BME280;28495;49.916;14.536;2023-03-31T02:32:00;96120.06;;;7.63;73.02
42847;BME280;28495;49.916;14.536;2023-03-31T02:37:22;96108.44;;;7.68;73.18
42847;BME280;28495;49.916;14.536;2023-03-31T02:42:43;96108.00;;;7.72;72.99
42847;BME280;28495;49.916;14.536;2023-03-31T02:48:07;96111.16;;;7.66;73.14
42847;BME280;28495;49.916;14.536;2023-03-31T02:59:09;96107.47;;;7.69;73.21
42847;BME280;28495;49.916;14.536;2023-03-31T03:16:25;96096.13;;;7.60;72.90
42847;BME280;28495;49.916;14.536;2023-03-31T03:21:48;96093.44;;;7.52;72.78
42847;BME280;28495;49.916;14.536;2023-03-31T03:27:08;96082.09;;;7.53;73.37
42847;BME280;28495;49.916;14.536;2023-03-31T03:32:30;96078.81;;;7.60;73.25
42847;BME280;28495;49.916;14.536;2023-03-31T03:37:51;96068.28;;;7.62;73.13
42847;BME280;28495;49.916;14.536;2023-03-31T03:43:11;96053.41;;;7.64;72.98
42847;BME280;28495;49.916;14.536;2023-03-31T03:48:32;96043.69;;;7.66;73.14
42847;BME280;28495;49.916;14.536;2023-03-31T03:53:53;96028.34;;;7.83;73.76
42847;BME280;28495;49.916;14.536;2023-03-31T03:59:14;96024.06;;;8.01;73.92
42847;BME280;28495;49.916;14.536;2023-03-31T04:04:35;96015.56;;;8.09;73.58
42847;BME280;28495;49.916;14.536;2023-03-31T04:09:56;96000.94;;;8.08;73.36
42847;BME280;28495;49.916;14.536;2023-03-31T04:15:17;95994.63;;;8.11;73.22
42847;BME280;28495;49.916;14.536;2023-03-31T04:20:37;95982.75;;;8.08;72.95
42847;BME280;28495;49.916;14.536;2023-03-31T04:25:58;95969.16;;;7.96;73.12
42847;BME280;28495;49.916;14.536;2023-03-31T04:31:19;95969.41;;;7.93;73.07
42847;BME280;28495;49.916;14.536;2023-03-31T04:36:46;95961.78;;;7.91;73.20
42847;BME280;28495;49.916;14.536;2023-03-31T04:42:12;95966.63;;;7.76;72.81
42847;BME280;28495;49.916;14.536;2023-03-31T04:47:34;95971.31;;;7.63;73.08
42847;BME280;28495;49.916;14.536;2023-03-31T04:52:54;95966.66;;;7.57;73.15
42847;BME280;28495;49.916;14.536;2023-03-31T04:58:15;95951.09;;;7.57;73.19
42847;BME280;28495;49.916;14.536;2023-03-31T05:03:36;95951.00;;;7.48;73.11
42847;BME280;28495;49.916;14.536;2023-03-31T05:08:57;95937.50;;;7.45;73.16
42847;BME280;28495;49.916;14.536;2023-03-31T05:14:18;95925.88;;;7.49;73.64
42847;BME280;28495;49.916;14.536;2023-03-31T05:19:40;95921.91;;;7.55;73.53
42847;BME280;28495;49.916;14.536;2023-03-31T05:25:01;95907.31;;;7.82;73.61
42847;BME280;28495;49.916;14.536;2023-03-31T05:30:22;95897.31;;;8.15;73.52
42847;BME280;28495;49.916;14.536;2023-03-31T05:35:45;95892.91;;;8.33;73.37
42847;BME280;28495;49.916;14.536;2023-03-31T05:41:07;95881.50;;;8.44;73.53
42847;BME280;28495;49.916;14.536;2023-03-31T05:46:29;95872.69;;;8.55;73.04
42847;BME280;28495;49.916;14.536;2023-03-31T05:51:50;95861.09;;;8.67;73.31
42847;BME280;28495;49.916;14.536;2023-03-31T05:57:11;95853.13;;;8.87;73.35
42847;BME280;28495;49.916;14.536;2023-03-31T06:02:32;95853.81;;;8.97;72.87
42847;BME280;28495;49.916;14.536;2023-03-31T06:07:53;95841.31;;;9.01;73.15
42847;BME280;28495;49.916;14.536;2023-03-31T06:13:14;95833.09;;;9.06;72.43
42847;BME280;28495;49.916;14.536;2023-03-31T06:18:34;95831.84;;;9.18;72.56
42847;BME280;28495;49.916;14.536;2023-03-31T06:23:56;95827.81;;;9.24;72.75
42847;BME280;28495;49.916;14.536;2023-03-31T06:29:17;95828.97;;;9.29;72.25
42847;BME280;28495;49.916;14.536;2023-03-31T06:34:38;95812.66;;;9.19;72.47
42847;BME280;28495;49.916;14.536;2023-03-31T06:39:59;95813.59;;;9.10;72.61
42847;BME280;28495;49.916;14.536;2023-03-31T06:45:20;95820.78;;;9.16;72.69
42847;BME280;28495;49.916;14.536;2023-03-31T06:50:41;95806.50;;;9.20;72.38
42847;BME280;28495;49.916;14.536;2023-03-31T06:56:03;95814.13;;;9.22;72.15
42847;BME280;28495;49.916;14.536;2023-03-31T07:01:24;95814.50;;;9.27;72.71
42847;BME280;28495;49.916;14.536;2023-03-31T07:06:46;95802.75;;;9.23;72.52
42847;BME280;28495;49.916;14.536;2023-03-31T07:12:07;95802.84;;;9.05;72.47
42847;BME280;28495;49.916;14.536;2023-03-31T07:17:29;95795.34;;;9.02;72.61
42847;BME280;28495;49.916;14.536;2023-03-31T07:22:50;95798.31;;;9.07;72.67
42847;BME280;28495;49.916;14.536;2023-03-31T07:28:11;95794.69;;;8.99;72.58
42847;BME280;28495;49.916;14.536;2023-03-31T07:33:32;95791.78;;;9.03;72.58
42847;BME280;28495;49.916;14.536;2023-03-31T07:38:52;95779.84;;;9.26;73.04
42847;BME280;28495;49.916;14.536;2023-03-31T07:44:13;95770.47;;;9.42;72.52
42847;BME280;28495;49.916;14.536;2023-03-31T07:49:36;95757.38;;;9.60;72.48
42847;BME280;28495;49.916;14.536;2023-03-31T07:54:57;95757.19;;;9.70;72.43
42847;BME280;28495;49.916;14.536;2023-03-31T08:00:18;95741.91;;;9.83;72.38
42847;BME280;28495;49.916;14.536;2023-03-31T08:05:39;95733.97;;;9.93;71.96
42847;BME280;28495;49.916;14.536;2023-03-31T08:11:00;95739.34;;;9.91;72.23
42847;BME280;28495;49.916;14.536;2023-03-31T08:16:21;95744.22;;;9.86;71.80
42847;BME280;28495;49.916;14.536;2023-03-31T08:21:42;95740.63;;;9.79;71.98
42847;BME280;28495;49.916;14.536;2023-03-31T08:27:02;95735.13;;;9.82;71.93
42847;BME280;28495;49.916;14.536;2023-03-31T08:32:24;95719.66;;;9.97;72.06
42847;BME280;28495;49.916;14.536;2023-03-31T08:37:45;95730.41;;;10.02;72.31
42847;BME280;28495;49.916;14.536;2023-03-31T08:43:12;95726.31;;;10.00;72.31
42847;BME280;28495;49.916;14.536;2023-03-31T08:48:38;95713.13;;;9.85;72.09
42847;BME280;28495;49.916;14.536;2023-03-31T08:54:14;95710.22;;;9.88;72.33
42847;BME280;28495;49.916;14.536;2023-03-31T08:59:36;95717.69;;;9.83;71.91
42847;BME280;28495;49.916;14.536;2023-03-31T09:10:40;95696.38;;;9.79;72.05
42847;BME280;28495;49.916;14.536;2023-03-31T09:16:25;95684.47;;;9.68;71.77
42847;BME280;28495;49.916;14.536;2023-03-31T09:21:50;95691.13;;;9.46;71.63
42847;BME280;28495;49.916;14.536;2023-03-31T09:27:13;95667.84;;;9.36;71.78
42847;BME280;28495;49.916;14.536;2023-03-31T09:32:36;95659.06;;;9.29;71.80
42847;BME280;28495;49.916;14.536;2023-03-31T09:37:58;95642.78;;;9.27;71.90
42847;BME280;28495;49.916;14.536;2023-03-31T09:43:25;95656.13;;;9.24;72.29
42847;BME280;28495;49.916;14.536;2023-03-31T09:48:54;95646.38;;;9.26;72.57
42847;BME280;28495;49.916;14.536;2023-03-31T09:59:41;95627.03;;;9.37;72.75
42847;BME280;28495;49.916;14.536;2023-03-31T10:05:04;95613.84;;;9.30;72.47
42847;BME280;28495;49.916;14.536;2023-03-31T10:10:31;95615.94;;;9.26;72.44
42847;BME280;28495;49.916;14.536;2023-03-31T10:15:54;95599.53;;;9.26;73.19
42847;BME280;28495;49.916;14.536;2023-03-31T10:21:24;95599.84;;;9.23;73.31
42847;BME280;28495;49.916;14.536;2023-03-31T10:26:48;95588.63;;;9.30;73.44
42847;BME280;28495;49.916;14.536;2023-03-31T10:32:33;95581.97;;;9.36;73.59
42847;BME280;28495;49.916;14.536;2023-03-31T10:38:01;95564.41;;;9.38;73.78
42847;BME280;28495;49.916;14.536;2023-03-31T10:44:28;95548.97;;;9.45;73.80
42847;BME280;28495;49.916;14.536;2023-03-31T10:49:23;95551.56;;;9.45;73.78
42847;BME280;28495;49.916;14.536;2023-03-31T10:54:46;95546.19;;;9.46;73.31
42847;BME280;28495;49.916;14.536;2023-03-31T11:05:51;95546.03;;;9.32;73.92
42847;BME280;28495;49.916;14.536;2023-03-31T11:17:07;95537.09;;;9.26;74.02
42847;BME280;28495;49.916;14.536;2023-03-31T11:23:13;95531.59;;;9.29;73.98
42847;BME280;28495;49.916;14.536;2023-03-31T11:29:03;95517.59;;;9.30;74.01
42847;BME280;28495;49.916;14.536;2023-03-31T11:45:17;95497.25;;;9.34;74.56
42847;BME280;28495;49.916;14.536;2023-03-31T11:50:42;95407.78;;;9.43;74.93
42847;BME280;28495;49.916;14.536;2023-03-31T11:56:06;95454.78;;;9.50;74.89
42847;BME280;28495;49.916;14.536;2023-03-31T12:07:02;95434.59;;;9.60;74.58
42847;BME280;28495;49.916;14.536;2023-03-31T12:12:27;95429.03;;;9.63;75.03
42847;BME280;28495;49.916;14.536;2023-03-31T12:17:56;95421.56;;;9.68;75.00
42847;BME280;28495;49.916;14.536;2023-03-31T12:23:21;95410.47;;;9.74;75.04
42847;BME280;28495;49.916;14.536;2023-03-31T12:28:45;95406.72;;;9.77;74.87
42847;BME280;28495;49.916;14.536;2023-03-31T12:34:14;95385.97;;;9.92;74.94
42847;BME280;28495;49.916;14.536;2023-03-31T12:40:03;95381.22;;;10.27;76.01
42847;BME280;28495;49.916;14.536;2023-03-31T12:51:37;95346.97;;;10.62;75.10
42847;BME280;28495;49.916;14.536;2023-03-31T12:57:12;95346.28;;;10.68;74.97
42847;BME280;28495;49.916;14.536;2023-03-31T13:02:34;95345.41;;;10.76;74.48
42847;BME280;28495;49.916;14.536;2023-03-31T13:07:55;95338.91;;;10.72;74.49
42847;BME280;28495;49.916;14.536;2023-03-31T13:13:16;95334.22;;;10.67;74.07
42847;BME280;28495;49.916;14.536;2023-03-31T13:18:37;95319.47;;;10.59;73.69
42847;BME280;28495;49.916;14.536;2023-03-31T13:24:05;95296.88;;;10.51;73.77
42847;BME280;28495;49.916;14.536;2023-03-31T13:35:13;95275.16;;;10.74;74.18
42847;BME280;28495;49.916;14.536;2023-03-31T13:46:33;95223.78;;;11.35;73.94
42847;BME280;28495;49.916;14.536;2023-03-31T13:52:04;95216.94;;;11.49;73.45
42847;BME280;28495;49.916;14.536;2023-03-31T14:08:48;95217.81;;;11.78;71.98
42847;BME280;28495;49.916;14.536;2023-03-31T14:14:13;95365.19;;;11.53;70.99
42847;BME280;28495;49.916;14.536;2023-03-31T14:31:11;95336.81;;;9.66;71.74
42847;BME280;28495;49.916;14.536;2023-03-31T14:36:49;95332.94;;;9.53;71.65
42847;BME280;28495;49.916;14.536;2023-03-31T14:42:23;95321.84;;;9.28;71.45
42847;BME280;28495;49.916;14.536;2023-03-31T14:47:57;95311.81;;;9.08;71.51
42847;BME280;28495;49.916;14.536;2023-03-31T14:53:22;95298.28;;;9.13;72.09
42847;BME280;28495;49.916;14.536;2023-03-31T14:58:47;95291.66;;;9.10;72.08
42847;BME280;28495;49.916;14.536;2023-03-31T15:04:12;95290.03;;;9.09;71.88
42847;BME280;28495;49.916;14.536;2023-03-31T15:09:35;95271.50;;;9.04;72.17
42847;BME280;28495;49.916;14.536;2023-03-31T15:15:04;95229.44;;;9.32;73.81
42847;BME280;28495;49.916;14.536;2023-03-31T15:20:44;95228.25;;;10.36;73.39
42847;BME280;28495;49.916;14.536;2023-03-31T15:26:08;95206.34;;;10.07;72.16
42847;BME280;28495;49.916;14.536;2023-03-31T15:31:30;95206.38;;;9.84;71.75
42847;BME280;28495;49.916;14.536;2023-03-31T15:36:56;95224.16;;;9.49;71.41
42847;BME280;28495;49.916;14.536;2023-03-31T15:42:17;95229.22;;;9.42;72.29
42847;BME280;28495;49.916;14.536;2023-03-31T15:47:47;95232.19;;;9.39;71.85
42847;BME280;28495;49.916;14.536;2023-03-31T15:53:25;95221.03;;;9.30;72.11
42847;BME280;28495;49.916;14.536;2023-03-31T15:58:59;95220.72;;;9.80;75.34
42847;BME280;28495;49.916;14.536;2023-03-31T16:04:21;95200.16;;;11.58;77.50
42847;BME280;28495;49.916;14.536;2023-03-31T16:09:49;95201.69;;;11.52;72.37
42847;BME280;28495;49.916;14.536;2023-03-31T16:15:15;95224.63;;;10.75;70.89
42847;BME280;28495;49.916;14.536;2023-03-31T16:20:57;95230.66;;;10.22;70.77
42847;BME280;28495;49.916;14.536;2023-03-31T16:26:23;95222.56;;;9.94;71.43
42847;BME280;28495;49.916;14.536;2023-03-31T16:31:45;95221.06;;;9.76;71.43
42847;BME280;28495;49.916;14.536;2023-03-31T16:37:06;95228.09;;;9.44;71.01
42847;BME280;28495;49.916;14.536;2023-03-31T16:42:31;95231.19;;;9.95;74.62
42847;BME280;28495;49.916;14.536;2023-03-31T16:47:51;95236.50;;;9.78;71.28
42847;BME280;28495;49.916;14.536;2023-03-31T16:53:28;95240.34;;;9.36;71.29
42847;BME280;28495;49.916;14.536;2023-03-31T16:58:49;95231.00;;;9.18;71.48
42847;BME280;28495;49.916;14.536;2023-03-31T17:04:11;95221.94;;;9.06;71.62
42847;BME280;28495;49.916;14.536;2023-03-31T17:09:33;95226.38;;;8.89;71.58
42847;BME280;28495;49.916;14.536;2023-03-31T17:14:54;95232.09;;;8.84;71.56
42847;BME280;28495;49.916;14.536;2023-03-31T17:20:15;95250.94;;;8.86;71.93
42847;BME280;28495;49.916;14.536;2023-03-31T17:25:38;95256.72;;;8.96;72.20
42847;BME280;28495;49.916;14.536;2023-03-31T17:30:59;95259.88;;;8.83;71.70
42847;BME280;28495;49.916;14.536;2023-03-31T17:36:19;95247.34;;;8.79;72.01
42847;BME280;28495;49.916;14.536;2023-03-31T17:41:42;95255.66;;;8.74;72.07
42847;BME280;28495;49.916;14.536;2023-03-31T17:47:02;95258.44;;;8.73;72.15
42847;BME280;28495;49.916;14.536;2023-03-31T17:52:23;95266.22;;;8.64;72.07
42847;BME280;28495;49.916;14.536;2023-03-31T17:57:44;95288.50;;;8.67;72.22
42847;BME280;28495;49.916;14.536;2023-03-31T18:03:05;95288.16;;;8.62;72.57
42847;BME280;28495;49.916;14.536;2023-03-31T18:08:26;95295.94;;;8.70;72.62
42847;BME280;28495;49.916;14.536;2023-03-31T18:13:47;95293.69;;;8.59;72.17
42847;BME280;28495;49.916;14.536;2023-03-31T18:19:10;95294.19;;;8.54;72.10
42847;BME280;28495;49.916;14.536;2023-03-31T18:24:31;95296.97;;;8.52;72.27
42847;BME280;28495;49.916;14.536;2023-03-31T18:29:51;95303.28;;;8.50;72.44
42847;BME280;28495;49.916;14.536;2023-03-31T18:35:12;95285.09;;;8.50;72.52
42847;BME280;28495;49.916;14.536;2023-03-31T18:40:36;95295.31;;;8.60;72.84
42847;BME280;28495;49.916;14.536;2023-03-31T18:45:57;95298.38;;;8.63;72.11
42847;BME280;28495;49.916;14.536;2023-03-31T18:51:20;95306.38;;;8.62;71.98
42847;BME280;28495;49.916;14.536;2023-03-31T18:56:41;95300.34;;;8.53;71.88
42847;BME280;28495;49.916;14.536;2023-03-31T19:02:02;95296.59;;;8.47;72.03
42847;BME280;28495;49.916;14.536;2023-03-31T19:07:23;95288.81;;;8.47;71.83
42847;BME280;28495;49.916;14.536;2023-03-31T19:12:47;95301.19;;;8.53;72.07
42847;BME280;28495;49.916;14.536;2023-03-31T19:18:12;95296.28;;;8.59;72.06
42847;BME280;28495;49.916;14.536;2023-03-31T19:23:34;95300.00;;;8.64;71.70
42847;BME280;28495;49.916;14.536;2023-03-31T19:28:55;95303.44;;;8.48;71.55
42847;BME280;28495;49.916;14.536;2023-03-31T19:34:16;95301.97;;;8.46;71.72
42847;BME280;28495;49.916;14.536;2023-03-31T19:39:37;95306.19;;;8.38;71.64
42847;BME280;28495;49.916;14.536;2023-03-31T19:44:58;95297.72;;;8.20;71.56
42847;BME280;28495;49.916;14.536;2023-03-31T19:50:19;95300.03;;;8.15;72.04
42847;BME280;28495;49.916;14.536;2023-03-31T19:55:39;95296.28;;;8.17;72.08
42847;BME280;28495;49.916;14.536;2023-03-31T20:01:04;95291.88;;;8.18;72.21
42847;BME280;28495;49.916;14.536;2023-03-31T20:06:27;95299.19;;;8.14;72.24
42847;BME280;28495;49.916;14.536;2023-03-31T20:11:49;95293.03;;;8.07;72.33
42847;BME280;28495;49.916;14.536;2023-03-31T20:17:10;95296.44;;;8.07;72.56
42847;BME280;28495;49.916;14.536;2023-03-31T20:22:32;95306.31;;;8.12;72.34
42847;BME280;28495;49.916;14.536;2023-03-31T20:27:53;95311.03;;;8.17;72.34
42847;BME280;28495;49.916;14.536;2023-03-31T20:33:14;95312.50;;;8.19;72.58
42847;BME280;28495;49.916;14.536;2023-03-31T20:38:37;95304.53;;;8.21;72.50
42847;BME280;28495;49.916;14.536;2023-03-31T20:43:59;95297.75;;;8.12;72.56
42847;BME280;28495;49.916;14.536;2023-03-31T20:49:20;95300.97;;;8.05;72.22
42847;BME280;28495;49.916;14.536;2023-03-31T20:54:41;95310.22;;;8.00;72.59
42847;BME280;28495;49.916;14.536;2023-03-31T21:00:02;95307.63;;;8.00;72.72
42847;BME280;28495;49.916;14.536;2023-03-31T21:05:23;95293.84;;;7.99;72.59
42847;BME280;28495;49.916;14.536;2023-03-31T21:10:45;95292.53;;;7.95;72.56
42847;BME280;28495;49.916;14.536;2023-03-31T21:16:06;95278.41;;;7.89;72.76
42847;BME280;28495;49.916;14.536;2023-03-31T21:21:27;95275.50;;;7.92;72.46
42847;BME280;28495;49.916;14.536;2023-03-31T21:26:48;95271.13;;;8.01;72.96
42847;BME280;28495;49.916;14.536;2023-03-31T21:32:10;95277.91;;;7.94;72.64
42847;BME280;28495;49.916;14.536;2023-03-31T21:37:30;95270.31;;;7.92;72.41
42847;BME280;28495;49.916;14.536;2023-03-31T21:42:51;95273.03;;;7.91;72.26
42847;BME280;28495;49.916;14.536;2023-03-31T21:48:12;95276.59;;;7.90;72.17
42847;BME280;28495;49.916;14.536;2023-03-31T21:53:32;95288.63;;;7.91;72.47
42847;BME280;28495;49.916;14.536;2023-03-31T21:58:53;95284.72;;;7.87;72.61
42847;BME280;28495;49.916;14.536;2023-03-31T22:04:14;95284.09;;;7.93;72.36
42847;BME280;28495;49.916;14.536;2023-03-31T22:09:35;95291.88;;;7.93;72.61
42847;BME280;28495;49.916;14.536;2023-03-31T22:14:57;95296.09;;;7.94;72.33
42847;BME280;28495;49.916;14.536;2023-03-31T22:20:18;95297.38;;;7.90;71.99
42847;BME280;28495;49.916;14.536;2023-03-31T22:25:39;95291.53;;;7.88;72.56
42847;BME280;28495;49.916;14.536;2023-03-31T22:30:59;95297.38;;;7.90;72.53
42847;BME280;28495;49.916;14.536;2023-03-31T22:36:21;95293.00;;;7.90;72.39
42847;BME280;28495;49.916;14.536;2023-03-31T22:41:43;95285.22;;;7.99;72.67
42847;BME280;28495;49.916;14.536;2023-03-31T22:47:05;95275.81;;;7.98;72.74
42847;BME280;28495;49.916;14.536;2023-03-31T22:52:26;95283.09;;;7.94;72.29
42847;BME280;28495;49.916;14.536;2023-03-31T22:57:47;95274.84;;;7.90;72.34
42847;BME280;28495;49.916;14.536;2023-03-31T23:03:07;95279.53;;;7.87;72.26
42847;BME280;28495;49.916;14.536;2023-03-31T23:08:29;95282.94;;;7.87;72.77
42847;BME280;28495;49.916;14.536;2023-03-31T23:13:50;95275.81;;;7.89;72.58
42847;BME280;28495;49.916;14.536;2023-03-31T23:19:11;95281.00;;;7.89;72.40
42847;BME280;28495;49.916;14.536;2023-03-31T23:24:32;95276.78;;;7.88;72.40
42847;BME280;28495;49.916;14.536;2023-03-31T23:29:53;95266.53;;;7.87;72.15
42847;BME280;28495;49.916;14.536;2023-03-31T23:35:14;95266.88;;;7.92;72.23
42847;BME280;28495;49.916;14.536;2023-03-31T23:40:35;95255.69;;;7.91;72.35
42847;BME280;28495;49.916;14.536;2023-03-31T23:45:56;95263.97;;;7.95;72.19
42847;BME280;28495;49.916;14.536;2023-03-31T23:51:18;95267.06;;;7.99;72.23
42847;BME280;28495;49.916;14.536;2023-03-31T23:56:39;95261.72;;;8.00;72.33
